Pownal Center, Vermont
Current Conditions -  °F | °C
As of 12:52 PM on Friday 31 Oct 2014 (Local Time) from KAQW Reporting Station
Broken Clouds Broken Clouds  
Wind Chill: 45°   Ceiling: 4200
Heat Index: 48°   Visibility: 10mi
Dew Point: 33°   Wind: 6mph
Humidity: 56%   Direction: 100°E
Pressure: 29.99"   Gusts: NA
Location:  42.7845°N, 73.2029°W
Report Text: KAQW 311652Z AUTO 10005KT 10SM BKN042 09/01 A2999 RMK AO2 SLP160 T00890006
Loading
Personal Weather Stations






























Interactive Weather Map
Tropical Storm Tracking
New forecast layout! Learn more

10-Day Weather Forecast

Advertisements
Track Severe Weather on mobile